createdAt,value
2018-05-31T00:00:05.996Z,17.00
2018-05-31T00:00:27.284Z,17.20
2018-05-31T00:01:11.994Z,16.80
2018-05-31T00:01:34.199Z,17.10
2018-05-31T00:01:56.640Z,17.20
2018-05-31T00:02:18.727Z,17.10
2018-05-31T00:02:40.435Z,17.10
2018-05-31T00:03:01.739Z,17.00
2018-05-31T00:03:23.409Z,16.90
2018-05-31T00:03:44.660Z,16.90
2018-05-31T00:04:06.729Z,17.10
2018-05-31T00:04:28.387Z,16.90
2018-05-31T00:04:50.510Z,17.10
2018-05-31T00:05:12.195Z,16.10
2018-05-31T00:05:33.495Z,17.10
2018-05-31T00:05:55.252Z,17.20
2018-05-31T00:06:20.861Z,17.40
2018-05-31T00:06:42.141Z,16.80
2018-05-31T00:07:27.218Z,17.00
2018-05-31T00:07:49.298Z,17.30
2018-05-31T00:08:10.635Z,16.70
2018-05-31T00:08:31.950Z,17.20
2018-05-31T00:08:53.988Z,18.30
2018-05-31T00:09:15.657Z,16.80
2018-05-31T00:09:36.943Z,16.70
2018-05-31T00:09:58.626Z,17.10
2018-05-31T00:10:20.690Z,16.70
2018-05-31T00:11:06.471Z,16.90
2018-05-31T00:11:27.761Z,16.70
2018-05-31T00:11:49.834Z,17.30
2018-05-31T00:12:15.434Z,17.00
2018-05-31T00:12:36.770Z,17.30
2018-05-31T00:12:58.090Z,16.70
2018-05-31T00:13:19.394Z,17.10
2018-05-31T00:13:40.706Z,16.60
2018-05-31T00:14:02.400Z,17.10
2018-05-31T00:14:24.355Z,16.70
2018-05-31T00:14:45.597Z,16.90
2018-05-31T00:15:07.229Z,17.80
2018-05-31T00:15:51.504Z,16.60
2018-05-31T00:16:13.118Z,17.00
2018-05-31T00:16:35.099Z,17.30
2018-05-31T00:16:56.346Z,16.60
2018-05-31T00:17:17.955Z,17.20
2018-05-31T00:17:40.710Z,16.90
2018-05-31T00:18:02.705Z,17.00
2018-05-31T00:18:23.954Z,16.70
2018-05-31T00:18:45.220Z,16.90
2018-05-31T00:19:07.582Z,16.60
2018-05-31T00:19:28.817Z,16.70
2018-05-31T00:21:00.210Z,17.10
2018-05-31T00:21:21.910Z,16.80
2018-05-31T00:21:43.907Z,16.90
2018-05-31T00:22:05.292Z,16.60
2018-05-31T00:22:26.571Z,16.80
2018-05-31T00:22:48.588Z,17.10
2018-05-31T00:23:11.324Z,16.70
2018-05-31T00:23:33.695Z,16.90
2018-05-31T00:23:55.720Z,17.20
2018-05-31T00:24:39.929Z,16.70
2018-05-31T00:25:01.524Z,18.10
2018-05-31T00:25:23.564Z,17.00
2018-05-31T00:26:08.228Z,17.20
2018-05-31T00:26:29.460Z,17.10
2018-05-31T00:26:51.855Z,16.90
2018-05-31T00:27:13.135Z,16.90
2018-05-31T00:27:34.370Z,17.00
2018-05-31T00:27:56.741Z,16.70
2018-05-31T00:28:41.694Z,17.00
2018-05-31T00:29:26.341Z,17.90
2018-05-31T00:29:47.582Z,16.90
2018-05-31T00:30:32.700Z,17.30
2018-05-31T00:30:54.393Z,17.00
2018-05-31T00:31:16.068Z,17.10
2018-05-31T00:31:38.026Z,17.10
2018-05-31T00:32:00.052Z,17.40
2018-05-31T00:32:22.095Z,17.00
2018-05-31T00:32:44.848Z,16.70
2018-05-31T00:33:06.111Z,17.10
2018-05-31T00:33:27.698Z,16.90
2018-05-31T00:33:49.340Z,17.20
2018-05-31T00:34:10.624Z,17.10
2018-05-31T00:34:31.910Z,17.00
2018-05-31T00:35:16.501Z,16.70
2018-05-31T00:35:38.259Z,16.90
2018-05-31T00:35:59.519Z,16.60
2018-05-31T00:36:44.934Z,17.10
2018-05-31T00:37:06.929Z,16.80
2018-05-31T00:37:51.239Z,16.70
2018-05-31T00:38:12.633Z,16.50
2018-05-31T00:38:34.604Z,16.80
2018-05-31T00:38:55.858Z,16.70
2018-05-31T00:39:17.488Z,16.80
2018-05-31T00:39:38.837Z,16.50
2018-05-31T00:40:00.431Z,16.50
2018-05-31T00:40:22.603Z,16.80
2018-05-31T00:41:06.811Z,16.50
2018-05-31T00:41:28.795Z,16.00
2018-05-31T00:42:13.848Z,17.00
2018-05-31T00:42:35.442Z,17.70
2018-05-31T00:42:56.750Z,17.00
2018-05-31T00:43:18.338Z,16.60
2018-05-31T00:44:02.889Z,16.70
2018-05-31T00:44:24.098Z,16.40
2018-05-31T00:45:09.114Z,17.00
2018-05-31T00:45:54.353Z,16.70
2018-05-31T00:46:40.084Z,16.70
2018-05-31T00:47:01.339Z,16.50
2018-05-31T00:47:22.998Z,16.60
2018-05-31T00:47:44.369Z,17.00
2018-05-31T00:48:05.647Z,16.90
2018-05-31T00:48:27.298Z,16.50
2018-05-31T00:48:48.939Z,16.70
2018-05-31T00:49:10.221Z,16.80
2018-05-31T00:50:18.185Z,17.50
2018-05-31T00:50:39.424Z,16.40
2018-05-31T00:51:02.217Z,16.80
2018-05-31T00:51:24.249Z,16.80
2018-05-31T00:51:45.853Z,16.50
2018-05-31T00:52:07.079Z,16.50
2018-05-31T00:52:29.434Z,16.80
2018-05-31T00:52:51.422Z,16.80
2018-05-31T00:53:12.805Z,16.50
2018-05-31T00:53:34.455Z,16.70
2018-05-31T00:53:56.442Z,16.80
2018-05-31T00:54:18.414Z,16.80
2018-05-31T00:54:40.446Z,16.80
2018-05-31T00:55:02.814Z,16.80
2018-05-31T00:55:42.651Z,16.60
2018-05-31T00:56:13.161Z,16.80
2018-05-31T00:56:34.429Z,16.40
2018-05-31T00:56:56.060Z,16.70
2018-05-31T00:57:18.424Z,17.50
2018-05-31T00:57:39.707Z,17.00
2018-05-31T00:58:02.061Z,17.10
2018-05-31T00:58:24.783Z,16.60
2018-05-31T00:58:47.564Z,16.90
2018-05-31T00:59:08.804Z,16.70
2018-05-31T00:59:30.809Z,16.80
2018-05-31T01:00:15.048Z,16.60
2018-05-31T01:00:36.809Z,16.70
2018-05-31T01:01:22.305Z,16.90
2018-05-31T01:01:43.997Z,17.10
2018-05-31T01:02:05.225Z,16.50
2018-05-31T01:02:27.287Z,16.90
2018-05-31T01:02:48.566Z,16.50
2018-05-31T01:03:09.809Z,16.40
2018-05-31T01:03:54.066Z,16.80
2018-05-31T01:04:16.120Z,16.80
2018-05-31T01:04:37.729Z,16.90
2018-05-31T01:04:59.089Z,16.70
2018-05-31T01:05:44.097Z,17.00
2018-05-31T01:06:05.791Z,17.00
2018-05-31T01:06:27.497Z,17.20
2018-05-31T01:06:49.226Z,16.90
2018-05-31T01:07:10.573Z,17.10
2018-05-31T01:07:32.661Z,17.00
2018-05-31T01:07:54.276Z,16.80
2018-05-31T01:08:38.531Z,16.40
2018-05-31T01:09:00.537Z,16.70
2018-05-31T01:09:22.581Z,16.70
2018-05-31T01:10:30.568Z,16.30
2018-05-31T01:11:38.120Z,16.40
2018-05-31T01:11:59.376Z,16.30
2018-05-31T01:12:21.618Z,16.70
2018-05-31T01:12:43.283Z,16.60
2018-05-31T01:13:05.310Z,16.50
2018-05-31T01:13:27.320Z,15.80
2018-05-31T01:13:49.694Z,16.60
2018-05-31T01:14:10.978Z,17.00
2018-05-31T01:14:33.329Z,16.60
2018-05-31T01:14:55.312Z,16.40
2018-05-31T01:15:17.276Z,16.60
2018-05-31T01:16:01.627Z,16.20
2018-05-31T01:16:23.244Z,16.60
2018-05-31T01:16:45.298Z,16.30
2018-05-31T01:17:07.333Z,16.30
2018-05-31T01:17:28.658Z,16.60
2018-05-31T01:17:50.360Z,16.40
2018-05-31T01:18:13.088Z,16.50
2018-05-31T01:18:34.353Z,16.50
2018-05-31T01:18:56.345Z,16.70
2018-05-31T01:19:18.694Z,15.60
2018-05-31T01:19:40.275Z,16.40
2018-05-31T01:20:01.519Z,16.50
2018-05-31T01:20:23.509Z,16.30
2018-05-31T01:20:44.822Z,16.60
2018-05-31T01:21:06.033Z,16.60
2018-05-31T01:21:50.682Z,16.50
2018-05-31T01:22:11.978Z,16.80
2018-05-31T01:22:33.288Z,16.80
2018-05-31T01:22:54.924Z,16.20
2018-05-31T01:23:16.558Z,16.90
2018-05-31T01:23:38.176Z,16.60
2018-05-31T01:24:00.145Z,16.50
2018-05-31T01:25:31.122Z,16.20
2018-05-31T01:25:53.155Z,16.80
2018-05-31T01:26:37.902Z,16.50
2018-05-31T01:26:59.210Z,16.90
2018-05-31T01:27:20.493Z,16.80
2018-05-31T01:27:42.850Z,16.60
2018-05-31T01:28:04.856Z,16.50
2018-05-31T01:29:13.419Z,16.80
2018-05-31T01:29:36.176Z,15.40
2018-05-31T01:29:58.184Z,16.60
2018-05-31T01:30:20.981Z,16.60
2018-05-31T01:31:05.700Z,16.50
2018-05-31T01:31:26.974Z,16.10
2018-05-31T01:31:49.310Z,16.50
2018-05-31T01:32:11.679Z,16.50
2018-05-31T01:32:33.858Z,16.20
2018-05-31T01:32:55.096Z,16.90
2018-05-31T01:33:16.346Z,16.60
2018-05-31T01:33:37.620Z,16.20
2018-05-31T01:33:59.249Z,16.90
2018-05-31T01:34:20.506Z,16.70
2018-05-31T01:34:42.145Z,16.50
2018-05-31T01:35:03.378Z,16.40
2018-05-31T01:35:48.418Z,16.10
2018-05-31T01:36:09.711Z,16.10
2018-05-31T01:36:31.734Z,16.40
2018-05-31T01:36:53.343Z,16.40
2018-05-31T01:37:16.113Z,16.80
2018-05-31T01:38:19.553Z,16.30
2018-05-31T01:38:40.938Z,16.90
2018-05-31T01:39:02.258Z,16.50
2018-05-31T01:39:23.541Z,16.80
2018-05-31T01:39:45.171Z,16.50
2018-05-31T01:40:06.464Z,16.60
2018-05-31T01:40:27.754Z,16.50
2018-05-31T01:40:49.383Z,16.40
2018-05-31T01:41:12.190Z,16.40
2018-05-31T01:41:33.832Z,16.60
2018-05-31T01:41:55.084Z,16.60
2018-05-31T01:42:39.806Z,16.50
2018-05-31T01:43:01.075Z,16.10
2018-05-31T01:43:22.379Z,16.70
2018-05-31T01:43:44.847Z,16.20
2018-05-31T01:44:06.106Z,16.40
2018-05-31T01:44:28.830Z,16.40
2018-05-31T01:44:50.434Z,16.30
2018-05-31T01:45:12.876Z,16.40
2018-05-31T01:45:57.939Z,16.10
2018-05-31T01:46:19.198Z,15.60
2018-05-31T01:47:04.534Z,16.00
2018-05-31T01:47:26.597Z,15.80
2018-05-31T01:47:48.998Z,15.80
2018-05-31T01:48:10.655Z,15.80
2018-05-31T01:48:54.918Z,15.20
2018-05-31T01:49:39.765Z,15.50
2018-05-31T01:50:01.768Z,15.30
2018-05-31T01:51:09.711Z,15.20
2018-05-31T01:51:30.992Z,14.90
2018-05-31T01:52:15.291Z,15.60
2018-05-31T01:52:36.979Z,15.10
2018-05-31T01:52:58.570Z,15.50
2018-05-31T01:53:20.165Z,15.20
2018-05-31T01:54:05.162Z,15.10
2018-05-31T01:54:26.448Z,15.40
2018-05-31T01:55:35.211Z,15.60
2018-05-31T01:55:57.562Z,15.10
2018-05-31T01:56:20.287Z,15.70
2018-05-31T01:56:41.895Z,15.70
2018-05-31T01:57:26.851Z,15.40
2018-05-31T01:57:50.272Z,15.00
2018-05-31T01:58:12.002Z,15.40
2018-05-31T01:58:33.653Z,15.50
2018-05-31T01:58:56.363Z,15.40
2018-05-31T01:59:19.101Z,15.30
2018-05-31T01:59:41.095Z,15.40
2018-05-31T02:00:02.762Z,15.90
2018-05-31T02:00:24.820Z,15.20
2018-05-31T02:00:46.104Z,15.90
2018-05-31T02:01:07.721Z,15.40
2018-05-31T02:01:52.332Z,15.50
2018-05-31T02:02:13.981Z,15.20
2018-05-31T02:02:35.226Z,15.90
2018-05-31T02:02:57.961Z,15.60
2018-05-31T02:03:19.621Z,15.80
2018-05-31T02:03:41.635Z,15.60
2018-05-31T02:04:04.386Z,15.60
2018-05-31T02:04:26.732Z,15.60
2018-05-31T02:04:48.726Z,15.60
2018-05-31T02:05:10.734Z,15.60
2018-05-31T02:05:31.980Z,15.60
2018-05-31T02:05:53.227Z,15.80
2018-05-31T02:06:15.808Z,15.70
2018-05-31T02:06:37.055Z,15.80
2018-05-31T02:06:58.356Z,15.60
2018-05-31T02:07:19.647Z,15.40
2018-05-31T02:07:42.175Z,15.60
2018-05-31T02:08:03.381Z,15.80
2018-05-31T02:08:47.616Z,15.60
2018-05-31T02:09:09.596Z,16.30
2018-05-31T02:09:31.648Z,15.80
2018-05-31T02:09:52.963Z,15.60
2018-05-31T02:10:15.013Z,15.20
2018-05-31T02:10:36.652Z,15.70
2018-05-31T02:10:57.932Z,16.00
2018-05-31T02:11:42.741Z,16.30
2018-05-31T02:12:05.116Z,15.80
2018-05-31T02:12:27.124Z,16.00
2018-05-31T02:12:48.373Z,16.20
2018-05-31T02:13:10.811Z,16.00
2018-05-31T02:13:32.447Z,16.00
2018-05-31T02:14:17.013Z,16.40
2018-05-31T02:16:10.986Z,16.20
2018-05-31T02:16:32.988Z,15.90
2018-05-31T02:17:17.242Z,16.20
2018-05-31T02:17:39.601Z,16.60
2018-05-31T02:18:02.373Z,16.30
2018-05-31T02:18:24.710Z,16.30
2018-05-31T02:18:45.961Z,16.40
2018-05-31T02:19:08.311Z,16.30
2018-05-31T02:19:29.955Z,15.90
2018-05-31T02:19:51.596Z,16.70
2018-05-31T02:20:13.189Z,16.60
2018-05-31T02:20:58.981Z,16.10
2018-05-31T02:21:21.380Z,16.30
2018-05-31T02:21:42.597Z,16.60
2018-05-31T02:22:04.301Z,16.40
2018-05-31T02:22:49.131Z,16.40
2018-05-31T02:23:33.378Z,16.50
2018-05-31T02:23:54.630Z,16.10
2018-05-31T02:24:15.896Z,16.10
2018-05-31T02:24:37.505Z,17.10
2018-05-31T02:25:22.882Z,16.40
2018-05-31T02:25:44.145Z,16.30
2018-05-31T02:26:06.517Z,16.30
2018-05-31T02:27:14.091Z,16.50
2018-05-31T02:27:36.905Z,16.50
2018-05-31T02:27:59.324Z,16.50
2018-05-31T02:28:20.956Z,16.20
2018-05-31T02:28:42.223Z,16.20
2018-05-31T02:29:27.290Z,16.60
2018-05-31T02:29:48.980Z,16.60
2018-05-31T02:30:10.225Z,16.70
2018-05-31T02:30:31.829Z,16.20
2018-05-31T02:31:16.967Z,16.70
2018-05-31T02:31:38.551Z,16.30
2018-05-31T02:32:45.822Z,16.90
2018-05-31T02:33:07.059Z,16.30
2018-05-31T02:33:29.029Z,16.10
2018-05-31T02:34:13.603Z,16.50
2018-05-31T02:34:35.235Z,16.70
2018-05-31T02:35:19.445Z,17.00
2018-05-31T02:35:41.927Z,16.80
2018-05-31T02:36:26.559Z,16.70
2018-05-31T02:36:48.531Z,16.50
2018-05-31T02:37:10.547Z,16.80
2018-05-31T02:37:32.172Z,17.00
2018-05-31T02:37:53.445Z,17.10
2018-05-31T02:38:16.224Z,17.00
2018-05-31T02:38:37.867Z,16.80
2018-05-31T02:38:59.141Z,17.00
2018-05-31T02:39:21.504Z,16.80
2018-05-31T02:39:42.718Z,17.20
2018-05-31T02:40:05.075Z,16.50
2018-05-31T02:40:26.294Z,16.90
2018-05-31T02:40:47.932Z,17.00
2018-05-31T02:41:55.542Z,17.10
2018-05-31T02:42:16.826Z,17.20
2018-05-31T02:42:38.832Z,17.20
2018-05-31T02:43:01.178Z,16.90
2018-05-31T02:43:22.809Z,16.90
2018-05-31T02:43:44.031Z,16.90
2018-05-31T02:44:05.339Z,17.80
2018-05-31T02:44:26.579Z,17.20
2018-05-31T02:44:47.877Z,17.20
2018-05-31T02:45:09.903Z,16.90
2018-05-31T02:45:31.573Z,17.00
2018-05-31T02:46:16.535Z,16.90
2018-05-31T02:46:38.148Z,16.90
2018-05-31T02:47:00.516Z,16.60
2018-05-31T02:47:22.162Z,16.80
2018-05-31T02:47:43.811Z,16.70
2018-05-31T02:48:05.422Z,16.70
2018-05-31T02:48:26.696Z,16.60
2018-05-31T02:48:48.359Z,16.90
2018-05-31T02:49:32.676Z,16.70
2018-05-31T02:49:54.642Z,16.90
2018-05-31T02:50:16.293Z,16.90
2018-05-31T02:50:37.913Z,17.00
2018-05-31T02:50:59.207Z,16.60
2018-05-31T02:51:20.433Z,16.70
2018-05-31T02:51:41.685Z,16.60
2018-05-31T02:52:03.335Z,16.60
2018-05-31T02:52:24.592Z,16.70
2018-05-31T02:52:46.568Z,17.10
2018-05-31T02:53:30.813Z,16.80
2018-05-31T02:53:53.216Z,16.50
2018-05-31T02:54:15.247Z,16.40
2018-05-31T02:54:59.854Z,16.70
2018-05-31T02:55:21.096Z,17.00
2018-05-31T02:55:42.371Z,16.70
2018-05-31T02:56:04.354Z,17.10
2018-05-31T02:56:25.627Z,16.70
2018-05-31T02:57:11.385Z,16.90
2018-05-31T02:57:56.085Z,16.90
2018-05-31T02:58:18.066Z,16.90
2018-05-31T02:58:39.291Z,17.10
2018-05-31T02:59:00.559Z,16.60
2018-05-31T02:59:23.262Z,16.90
2018-05-31T02:59:44.937Z,16.70
2018-05-31T03:00:06.914Z,16.90
2018-05-31T03:00:51.091Z,17.10
2018-05-31T03:01:12.717Z,16.60
2018-05-31T03:01:57.370Z,16.50
2018-05-31T03:02:18.622Z,16.90
2018-05-31T03:02:40.230Z,16.90
2018-05-31T03:03:02.242Z,16.70
2018-05-31T03:03:24.969Z,16.30
2018-05-31T03:03:47.676Z,16.60
2018-05-31T03:04:09.289Z,16.80
2018-05-31T03:04:54.260Z,16.80
2018-05-31T03:05:15.488Z,16.70
2018-05-31T03:06:00.449Z,16.80
2018-05-31T03:06:21.818Z,16.40
2018-05-31T03:06:43.455Z,16.80
2018-05-31T03:07:05.857Z,16.80
2018-05-31T03:07:27.870Z,16.80
2018-05-31T03:07:50.273Z,17.10
2018-05-31T03:08:12.599Z,16.80
2018-05-31T03:08:33.838Z,17.10
2018-05-31T03:09:19.244Z,17.00
2018-05-31T03:09:40.848Z,17.00
2018-05-31T03:10:02.908Z,16.80
2018-05-31T03:10:27.320Z,17.40
2018-05-31T03:10:48.922Z,17.20
2018-05-31T03:11:10.938Z,17.00
2018-05-31T03:11:33.662Z,17.10
2018-05-31T03:11:55.286Z,17.20
2018-05-31T03:12:17.665Z,17.10
2018-05-31T03:12:38.941Z,17.30
2018-05-31T03:13:01.321Z,17.10
2018-05-31T03:13:23.003Z,17.40
2018-05-31T03:13:45.735Z,17.20
2018-05-31T03:14:11.723Z,17.40
2018-05-31T03:14:33.793Z,17.20
2018-05-31T03:14:56.545Z,17.20
2018-05-31T03:15:19.284Z,17.20
2018-05-31T03:16:03.505Z,17.30
2018-05-31T03:16:25.846Z,17.50
2018-05-31T03:17:10.102Z,17.50
2018-05-31T03:17:31.342Z,17.50
2018-05-31T03:17:53.707Z,17.40
2018-05-31T03:18:16.066Z,17.40
2018-05-31T03:18:37.292Z,17.00
2018-05-31T03:18:58.606Z,17.10
2018-05-31T03:19:19.847Z,17.10
2018-05-31T03:19:42.222Z,17.20
2018-05-31T03:20:03.519Z,17.40
2018-05-31T03:20:24.782Z,17.50
2018-05-31T03:20:47.163Z,17.20
2018-05-31T03:21:09.213Z,17.20
2018-05-31T03:21:30.813Z,17.20
2018-05-31T03:22:16.548Z,17.30
2018-05-31T03:22:38.553Z,17.30
2018-05-31T03:23:00.541Z,16.90
2018-05-31T03:23:44.778Z,17.40
2018-05-31T03:24:52.053Z,16.90
2018-05-31T03:25:14.047Z,17.10
2018-05-31T03:25:58.285Z,16.80
2018-05-31T03:26:20.607Z,17.20
2018-05-31T03:26:42.686Z,17.20
2018-05-31T03:27:04.685Z,16.90
2018-05-31T03:27:26.289Z,17.30
2018-05-31T03:27:47.513Z,17.00
2018-05-31T03:28:09.601Z,17.30
2018-05-31T03:28:32.309Z,17.10
2018-05-31T03:28:54.285Z,16.90
2018-05-31T03:29:17.113Z,17.10
2018-05-31T03:29:39.844Z,17.10
2018-05-31T03:30:01.515Z,17.10
2018-05-31T03:30:45.877Z,16.90
2018-05-31T03:31:07.886Z,17.10
2018-05-31T03:31:29.481Z,17.50
2018-05-31T03:31:51.116Z,17.20
2018-05-31T03:32:13.458Z,17.20
2018-05-31T03:32:35.076Z,17.40
2018-05-31T03:32:56.370Z,17.40
2018-05-31T03:33:18.378Z,17.20
2018-05-31T03:33:40.072Z,17.50
2018-05-31T03:34:01.379Z,17.30
2018-05-31T03:35:08.967Z,17.30
2018-05-31T03:35:31.334Z,17.50
2018-05-31T03:35:53.349Z,17.50
2018-05-31T03:36:15.349Z,17.40
2018-05-31T03:36:36.965Z,17.30
2018-05-31T03:36:58.249Z,17.90
2018-05-31T03:37:19.559Z,17.50
2018-05-31T03:37:42.319Z,17.30
2018-05-31T03:38:03.618Z,17.50
2018-05-31T03:38:24.870Z,17.40
2018-05-31T03:39:10.008Z,17.20
2018-05-31T03:39:31.660Z,17.40
2018-05-31T03:39:52.914Z,17.40
2018-05-31T03:40:14.915Z,17.40
2018-05-31T03:40:36.188Z,17.80
2018-05-31T03:40:57.829Z,17.70
2018-05-31T03:41:19.418Z,17.50
2018-05-31T03:42:04.418Z,17.50
2018-05-31T03:42:26.023Z,17.80
2018-05-31T03:42:48.053Z,17.80
2018-05-31T03:43:09.347Z,17.40
2018-05-31T03:43:30.609Z,17.80
2018-05-31T03:43:51.836Z,18.00
2018-05-31T03:44:14.213Z,17.50
2018-05-31T03:44:35.452Z,18.00
2018-05-31T03:45:44.301Z,17.80
2018-05-31T03:46:06.289Z,17.90
2018-05-31T03:46:28.621Z,17.80
2018-05-31T03:47:13.603Z,17.90
2018-05-31T03:47:35.603Z,18.20
2018-05-31T03:47:56.875Z,18.30
2018-05-31T03:48:18.140Z,18.20
2018-05-31T03:49:02.389Z,17.90
2018-05-31T03:49:23.767Z,17.70
2018-05-31T03:49:45.395Z,17.80
2018-05-31T03:50:30.705Z,18.00
2018-05-31T03:50:53.426Z,18.00
2018-05-31T03:51:15.181Z,18.20
2018-05-31T03:51:36.443Z,17.90
2018-05-31T03:51:57.711Z,18.20
2018-05-31T03:52:20.067Z,18.10
2018-05-31T03:52:42.147Z,18.10
2018-05-31T03:53:03.780Z,18.10
2018-05-31T03:53:24.999Z,17.90
2018-05-31T03:53:46.244Z,18.00
2018-05-31T03:54:31.258Z,17.90
2018-05-31T03:55:38.946Z,18.10
2018-05-31T03:56:00.185Z,18.00
2018-05-31T03:56:21.785Z,18.00
2018-05-31T03:56:43.777Z,18.30
2018-05-31T03:57:52.463Z,18.50
2018-05-31T03:58:14.461Z,18.20
2018-05-31T03:58:59.813Z,18.50
2018-05-31T03:59:21.428Z,18.50
2018-05-31T03:59:43.805Z,18.50
2018-05-31T04:00:05.140Z,18.40
2018-05-31T04:00:26.769Z,18.50
2018-05-31T04:00:49.181Z,18.30
2018-05-31T04:01:11.194Z,18.30
2018-05-31T04:01:33.979Z,18.30
2018-05-31T04:01:55.210Z,18.30
2018-05-31T04:02:16.445Z,18.60
2018-05-31T04:02:37.682Z,18.60
2018-05-31T04:02:58.981Z,18.60
2018-05-31T04:03:20.241Z,18.60
2018-05-31T04:03:41.457Z,18.60
2018-05-31T04:04:03.450Z,18.30
2018-05-31T04:04:24.678Z,18.50
2018-05-31T04:04:45.942Z,18.50
2018-05-31T04:05:07.606Z,18.60
2018-05-31T04:05:29.282Z,18.70
2018-05-31T04:05:50.498Z,18.60
2018-05-31T04:06:11.730Z,18.50
2018-05-31T04:06:33.334Z,18.80
2018-05-31T04:06:54.976Z,18.80
2018-05-31T04:07:16.596Z,18.80
2018-05-31T04:07:38.175Z,18.90
2018-05-31T04:07:59.443Z,18.90
2018-05-31T04:08:20.694Z,18.90
2018-05-31T04:08:42.701Z,18.70
2018-05-31T04:09:05.099Z,18.80
2018-05-31T04:09:26.317Z,19.00
2018-05-31T04:09:47.625Z,18.70
2018-05-31T04:10:08.962Z,18.60
2018-05-31T04:10:30.194Z,19.00
2018-05-31T04:10:51.510Z,18.90
2018-05-31T04:11:13.859Z,19.50
2018-05-31T04:11:35.076Z,19.20
2018-05-31T04:11:56.346Z,19.20
2018-05-31T04:12:17.588Z,19.00
2018-05-31T04:12:38.803Z,19.50
2018-05-31T04:13:00.515Z,19.10
2018-05-31T04:13:22.030Z,19.10
2018-05-31T04:13:43.313Z,19.40
2018-05-31T04:14:05.340Z,19.20
2018-05-31T04:14:27.359Z,19.30
2018-05-31T04:15:12.001Z,18.80
2018-05-31T04:15:33.626Z,19.10
2018-05-31T04:15:55.288Z,19.20
2018-05-31T04:16:16.913Z,19.30
2018-05-31T04:17:02.273Z,19.20
2018-05-31T04:17:23.898Z,19.20
2018-05-31T04:19:38.607Z,19.10
2018-05-31T04:20:00.025Z,19.00
2018-05-31T04:20:45.494Z,19.10
2018-05-31T04:21:07.659Z,19.20
2018-05-31T04:21:52.862Z,19.10
2018-05-31T04:22:15.867Z,19.10
2018-05-31T04:22:37.510Z,19.20
2018-05-31T04:23:00.592Z,19.10
2018-05-31T04:23:23.898Z,18.80
2018-05-31T04:23:45.471Z,19.10
2018-05-31T04:24:54.637Z,19.00
2018-05-31T04:25:17.496Z,19.30
2018-05-31T04:25:39.262Z,19.00
2018-05-31T04:26:01.532Z,18.80
2018-05-31T04:26:22.962Z,19.00
2018-05-31T04:26:44.453Z,18.70
2018-05-31T04:27:05.819Z,19.20
2018-05-31T04:27:27.596Z,19.40
2018-05-31T04:27:49.015Z,18.70
2018-05-31T04:28:33.633Z,18.80
2018-05-31T04:28:55.013Z,18.90
2018-05-31T04:29:17.851Z,18.50
2018-05-31T04:30:02.854Z,19.10
2018-05-31T04:30:47.686Z,18.70
2018-05-31T04:31:10.205Z,18.90
2018-05-31T04:31:32.058Z,18.90
2018-05-31T04:32:16.998Z,19.10
2018-05-31T04:32:39.745Z,19.90
2018-05-31T04:33:01.791Z,19.30
2018-05-31T04:34:49.058Z,18.80
2018-05-31T04:35:10.565Z,18.60
2018-05-31T04:35:32.736Z,19.10
2018-05-31T04:35:54.114Z,18.70
2018-05-31T04:36:16.220Z,18.20
2018-05-31T04:36:38.228Z,18.70
2018-05-31T04:37:00.504Z,19.40
2018-05-31T04:38:01.397Z,19.00
2018-05-31T04:38:23.693Z,19.00
2018-05-31T04:39:08.397Z,19.00
2018-05-31T04:39:30.957Z,19.10
2018-05-31T04:41:01.631Z,18.90
2018-05-31T04:41:24.499Z,19.00
2018-05-31T04:41:46.693Z,19.10
2018-05-31T04:42:08.871Z,19.20
2018-05-31T04:42:31.009Z,19.20
2018-05-31T04:43:15.926Z,19.00
2018-05-31T04:43:37.318Z,19.10
2018-05-31T04:44:00.700Z,19.20
2018-05-31T04:44:22.183Z,19.80
2018-05-31T04:44:44.401Z,19.20
2018-05-31T04:45:30.582Z,19.10
2018-05-31T04:45:53.087Z,19.30
2018-05-31T04:46:37.470Z,19.30
2018-05-31T04:46:58.892Z,19.60
2018-05-31T04:47:21.751Z,19.40
2018-05-31T04:47:43.067Z,19.40
2018-05-31T04:48:04.795Z,19.30
2018-05-31T04:48:26.866Z,19.50
2018-05-31T04:48:48.987Z,19.40
2018-05-31T04:49:11.056Z,19.40
2018-05-31T04:49:34.044Z,18.90
2018-05-31T04:49:56.792Z,19.80
2018-05-31T04:50:18.699Z,19.50
2018-05-31T04:50:40.337Z,19.70
2018-05-31T04:51:26.429Z,20.40
2018-05-31T04:51:48.169Z,20.30
2018-05-31T04:52:10.687Z,20.30
2018-05-31T04:52:32.294Z,20.30
2018-05-31T04:52:54.005Z,20.70
2018-05-31T04:53:40.113Z,21.20
2018-05-31T04:54:02.534Z,21.40
2018-05-31T04:54:48.308Z,21.80
2018-05-31T04:55:10.357Z,22.10
2018-05-31T04:55:32.029Z,22.60
2018-05-31T04:55:54.761Z,22.80
2018-05-31T04:56:42.306Z,23.30
2018-05-31T04:57:06.027Z,23.30
2018-05-31T04:57:28.744Z,23.80
2018-05-31T04:57:51.157Z,23.80
2018-05-31T04:58:37.399Z,24.20
2018-05-31T04:59:00.189Z,24.60
2018-05-31T04:59:23.216Z,24.80
2018-05-31T04:59:46.542Z,25.00
2018-05-31T05:00:09.244Z,25.20
2018-05-31T05:00:54.157Z,25.40
2018-05-31T05:02:01.668Z,26.30
2018-05-31T05:02:23.111Z,26.20
2018-05-31T05:02:44.552Z,26.30
2018-05-31T05:03:06.443Z,26.90
2018-05-31T05:03:28.553Z,26.60
2018-05-31T05:04:14.456Z,26.80
2018-05-31T05:04:35.791Z,27.30
2018-05-31T05:04:57.656Z,27.50
2018-05-31T05:05:19.075Z,27.20
2018-05-31T05:06:27.024Z,27.60
2018-05-31T05:06:48.419Z,27.60
2018-05-31T05:07:10.988Z,28.00
2018-05-31T05:07:33.391Z,28.00
2018-05-31T05:07:54.714Z,28.40
2018-05-31T05:08:16.084Z,28.30
2018-05-31T05:08:37.709Z,28.70
2018-05-31T05:08:59.372Z,28.50
2018-05-31T05:09:20.788Z,27.80
2018-05-31T05:09:42.143Z,28.40
2018-05-31T05:10:03.400Z,28.20
2018-05-31T05:10:47.894Z,28.30
2018-05-31T05:11:10.187Z,28.00
2018-05-31T05:11:32.737Z,27.90
2018-05-31T05:11:54.821Z,27.80
2018-05-31T05:12:16.943Z,27.50
2018-05-31T05:12:38.362Z,27.80
2018-05-31T05:12:59.701Z,27.00
2018-05-31T05:13:21.145Z,27.40
2018-05-31T05:13:43.300Z,27.00
2018-05-31T05:14:04.685Z,26.70
2018-05-31T05:14:27.500Z,26.80
2018-05-31T05:14:49.209Z,26.70
2018-05-31T05:15:10.497Z,26.30
2018-05-31T05:15:31.870Z,26.70
2018-05-31T05:15:53.144Z,26.60
2018-05-31T05:16:14.820Z,26.10
2018-05-31T05:16:36.445Z,26.20
2018-05-31T05:16:57.743Z,25.60
2018-05-31T05:17:19.724Z,25.60
2018-05-31T05:17:41.001Z,25.30
2018-05-31T05:18:02.308Z,25.60
2018-05-31T05:18:23.643Z,25.30
2018-05-31T05:18:44.955Z,24.80
2018-05-31T05:19:06.987Z,24.80
2018-05-31T05:19:29.027Z,24.70
2018-05-31T05:19:50.348Z,24.50
2018-05-31T05:20:11.660Z,24.30
2018-05-31T05:20:32.998Z,24.50
2018-05-31T05:20:54.322Z,24.30
2018-05-31T05:21:16.368Z,24.10
2018-05-31T05:21:37.643Z,23.90
2018-05-31T05:21:58.942Z,24.00
2018-05-31T05:22:20.255Z,23.50
2018-05-31T05:22:41.605Z,23.70
2018-05-31T05:23:27.162Z,23.40
2018-05-31T05:23:49.943Z,23.20
2018-05-31T05:24:11.338Z,23.10
2018-05-31T05:24:32.677Z,23.10
2018-05-31T05:24:53.983Z,23.10
2018-05-31T05:25:15.631Z,22.90
2018-05-31T05:25:36.899Z,23.00
2018-05-31T05:25:58.950Z,22.90
2018-05-31T05:26:20.660Z,23.00
2018-05-31T05:26:41.945Z,22.80
2018-05-31T05:27:03.266Z,22.70
2018-05-31T05:27:25.028Z,22.70
2018-05-31T05:27:46.820Z,22.70
2018-05-31T05:28:09.278Z,22.80
2018-05-31T05:28:31.441Z,22.80
2018-05-31T05:28:53.574Z,23.00
2018-05-31T05:29:15.626Z,22.70
2018-05-31T05:29:37.696Z,22.90
2018-05-31T05:29:59.063Z,22.90
2018-05-31T05:30:21.063Z,22.80
2018-05-31T05:30:43.169Z,23.00
2018-05-31T05:31:05.956Z,23.00
2018-05-31T05:31:27.385Z,23.30
2018-05-31T05:31:49.652Z,23.10
2018-05-31T05:32:11.808Z,23.50
2018-05-31T05:32:33.181Z,23.20
2018-05-31T05:32:55.312Z,23.20
2018-05-31T05:33:16.709Z,23.30
2018-05-31T05:33:38.005Z,23.30
2018-05-31T05:34:00.017Z,23.40
2018-05-31T05:34:21.332Z,23.50
2018-05-31T05:34:42.616Z,23.50
2018-05-31T05:35:03.913Z,23.60
2018-05-31T05:35:26.087Z,23.60
2018-05-31T05:36:10.376Z,23.70
2018-05-31T05:36:31.725Z,23.90
2018-05-31T05:36:53.064Z,24.00
2018-05-31T05:37:14.752Z,23.20
2018-05-31T05:37:36.299Z,24.00
2018-05-31T05:37:57.692Z,24.00
2018-05-31T05:38:19.484Z,24.20
2018-05-31T05:39:04.924Z,25.50
2018-05-31T05:39:26.584Z,24.50
2018-05-31T05:39:47.917Z,24.40
2018-05-31T05:40:09.213Z,24.80
2018-05-31T05:40:30.494Z,25.10
2018-05-31T05:40:51.835Z,25.50
2018-05-31T05:41:13.176Z,25.50